sensor_id;sensor_type;location;lat;lon;timestamp;P1;durP1;ratioP1;P2;durP2;ratioP2
261;SDS011;114;48.260;10.988;2022-12-20T00:02:15;12.77;;;9.67;;
261;SDS011;114;48.260;10.988;2022-12-20T00:04:41;13.83;;;9.77;;
261;SDS011;114;48.260;10.988;2022-12-20T00:07:06;13.43;;;10.10;;
261;SDS011;114;48.260;10.988;2022-12-20T00:09:32;13.20;;;11.20;;
261;SDS011;114;48.260;10.988;2022-12-20T00:11:58;20.10;;;10.93;;
261;SDS011;114;48.260;10.988;2022-12-20T00:14:24;17.77;;;11.80;;
261;SDS011;114;48.260;10.988;2022-12-20T00:16:49;15.10;;;11.30;;
261;SDS011;114;48.260;10.988;2022-12-20T00:19:15;14.00;;;11.50;;
261;SDS011;114;48.260;10.988;2022-12-20T00:21:41;18.50;;;11.40;;
261;SDS011;114;48.260;10.988;2022-12-20T00:24:07;16.87;;;12.07;;
261;SDS011;114;48.260;10.988;2022-12-20T00:26:34;20.37;;;12.17;;
261;SDS011;114;48.260;10.988;2022-12-20T00:29:00;21.50;;;12.27;;
261;SDS011;114;48.260;10.988;2022-12-20T00:31:29;20.43;;;12.37;;
261;SDS011;114;48.260;10.988;2022-12-20T00:33:55;17.30;;;9.77;;
261;SDS011;114;48.260;10.988;2022-12-20T00:36:23;14.10;;;9.60;;
261;SDS011;114;48.260;10.988;2022-12-20T00:38:51;14.37;;;10.10;;
261;SDS011;114;48.260;10.988;2022-12-20T00:41:19;11.43;;;9.30;;
261;SDS011;114;48.260;10.988;2022-12-20T00:43:47;12.83;;;9.70;;
261;SDS011;114;48.260;10.988;2022-12-20T00:46:13;14.20;;;10.83;;
261;SDS011;114;48.260;10.988;2022-12-20T00:48:40;16.83;;;10.80;;
261;SDS011;114;48.260;10.988;2022-12-20T00:51:10;15.37;;;12.27;;
261;SDS011;114;48.260;10.988;2022-12-20T00:53:38;13.20;;;10.70;;
261;SDS011;114;48.260;10.988;2022-12-20T00:56:05;15.43;;;11.20;;
261;SDS011;114;48.260;10.988;2022-12-20T00:58:35;16.03;;;11.50;;
261;SDS011;114;48.260;10.988;2022-12-20T01:01:03;12.17;;;8.53;;
261;SDS011;114;48.260;10.988;2022-12-20T01:03:30;12.50;;;9.87;;
261;SDS011;114;48.260;10.988;2022-12-20T01:05:57;10.30;;;8.10;;
261;SDS011;114;48.260;10.988;2022-12-20T01:08:24;16.20;;;10.90;;
261;SDS011;114;48.260;10.988;2022-12-20T01:11:01;14.60;;;10.80;;
261;SDS011;114;48.260;10.988;2022-12-20T01:13:27;14.37;;;10.70;;
261;SDS011;114;48.260;10.988;2022-12-20T01:15:53;15.10;;;11.20;;
261;SDS011;114;48.260;10.988;2022-12-20T01:18:19;13.43;;;9.87;;
261;SDS011;114;48.260;10.988;2022-12-20T01:20:45;13.60;;;10.93;;
261;SDS011;114;48.260;10.988;2022-12-20T01:23:11;15.93;;;10.73;;
261;SDS011;114;48.260;10.988;2022-12-20T01:25:36;12.77;;;8.93;;
261;SDS011;114;48.260;10.988;2022-12-20T01:28:02;11.43;;;8.13;;
261;SDS011;114;48.260;10.988;2022-12-20T01:30:28;13.03;;;9.80;;
261;SDS011;114;48.260;10.988;2022-12-20T01:32:54;11.67;;;9.87;;
261;SDS011;114;48.260;10.988;2022-12-20T01:35:19;11.17;;;8.97;;
261;SDS011;114;48.260;10.988;2022-12-20T01:37:45;14.93;;;10.33;;
261;SDS011;114;48.260;10.988;2022-12-20T01:40:11;11.93;;;9.70;;
261;SDS011;114;48.260;10.988;2022-12-20T01:42:37;10.93;;;9.40;;
261;SDS011;114;48.260;10.988;2022-12-20T01:45:03;26.53;;;9.00;;
261;SDS011;114;48.260;10.988;2022-12-20T01:47:37;14.63;;;10.30;;
261;SDS011;114;48.260;10.988;2022-12-20T01:50:04;13.00;;;9.63;;
261;SDS011;114;48.260;10.988;2022-12-20T01:52:33;16.33;;;10.23;;
261;SDS011;114;48.260;10.988;2022-12-20T01:55:18;13.00;;;8.70;;
261;SDS011;114;48.260;10.988;2022-12-20T02:00:16;12.73;;;10.47;;
261;SDS011;114;48.260;10.988;2022-12-20T02:02:42;11.27;;;9.83;;
261;SDS011;114;48.260;10.988;2022-12-20T02:05:10;15.80;;;11.27;;
261;SDS011;114;48.260;10.988;2022-12-20T02:07:39;14.23;;;10.57;;
261;SDS011;114;48.260;10.988;2022-12-20T02:10:09;16.27;;;12.00;;
261;SDS011;114;48.260;10.988;2022-12-20T02:12:40;16.43;;;10.60;;
261;SDS011;114;48.260;10.988;2022-12-20T02:26:25;13.03;;;10.40;;
261;SDS011;114;48.260;10.988;2022-12-20T02:32:01;17.30;;;11.50;;
261;SDS011;114;48.260;10.988;2022-12-20T02:34:44;15.73;;;10.67;;
261;SDS011;114;48.260;10.988;2022-12-20T02:37:10;17.47;;;10.33;;
261;SDS011;114;48.260;10.988;2022-12-20T02:39:38;15.47;;;9.40;;
261;SDS011;114;48.260;10.988;2022-12-20T02:42:07;13.40;;;10.43;;
261;SDS011;114;48.260;10.988;2022-12-20T02:44:37;12.23;;;10.60;;
261;SDS011;114;48.260;10.988;2022-12-20T02:47:33;13.77;;;9.80;;
261;SDS011;114;48.260;10.988;2022-12-20T02:50:07;19.13;;;10.27;;
261;SDS011;114;48.260;10.988;2022-12-20T02:52:34;12.60;;;10.30;;
261;SDS011;114;48.260;10.988;2022-12-20T02:55:00;14.77;;;11.00;;
261;SDS011;114;48.260;10.988;2022-12-20T02:57:31;14.90;;;10.97;;
261;SDS011;114;48.260;10.988;2022-12-20T03:00:07;14.10;;;11.00;;
261;SDS011;114;48.260;10.988;2022-12-20T03:02:35;17.00;;;11.40;;
261;SDS011;114;48.260;10.988;2022-12-20T03:05:21;16.87;;;12.30;;
261;SDS011;114;48.260;10.988;2022-12-20T03:07:49;16.83;;;11.50;;
261;SDS011;114;48.260;10.988;2022-12-20T03:10:15;16.27;;;10.47;;
261;SDS011;114;48.260;10.988;2022-12-20T03:12:41;14.73;;;10.97;;
261;SDS011;114;48.260;10.988;2022-12-20T03:15:07;15.40;;;11.30;;
261;SDS011;114;48.260;10.988;2022-12-20T03:17:34;11.67;;;10.00;;
261;SDS011;114;48.260;10.988;2022-12-20T03:19:59;12.90;;;11.40;;
261;SDS011;114;48.260;10.988;2022-12-20T03:22:25;14.20;;;10.00;;
261;SDS011;114;48.260;10.988;2022-12-20T03:24:51;14.63;;;9.83;;
261;SDS011;114;48.260;10.988;2022-12-20T03:27:17;13.27;;;10.30;;
261;SDS011;114;48.260;10.988;2022-12-20T03:29:43;13.23;;;9.70;;
261;SDS011;114;48.260;10.988;2022-12-20T03:32:10;15.23;;;9.63;;
261;SDS011;114;48.260;10.988;2022-12-20T03:34:36;10.00;;;8.70;;
261;SDS011;114;48.260;10.988;2022-12-20T03:37:03;14.13;;;9.40;;
261;SDS011;114;48.260;10.988;2022-12-20T03:39:28;14.30;;;9.83;;
261;SDS011;114;48.260;10.988;2022-12-20T03:41:54;18.67;;;8.60;;
261;SDS011;114;48.260;10.988;2022-12-20T03:44:20;12.80;;;8.67;;
261;SDS011;114;48.260;10.988;2022-12-20T03:46:45;9.57;;;8.50;;
261;SDS011;114;48.260;10.988;2022-12-20T03:49:11;12.50;;;9.23;;
261;SDS011;114;48.260;10.988;2022-12-20T03:51:37;13.90;;;8.77;;
261;SDS011;114;48.260;10.988;2022-12-20T03:54:03;10.30;;;8.60;;
261;SDS011;114;48.260;10.988;2022-12-20T03:56:28;9.97;;;7.90;;
261;SDS011;114;48.260;10.988;2022-12-20T03:58:54;10.90;;;8.83;;
261;SDS011;114;48.260;10.988;2022-12-20T04:01:21;10.77;;;8.10;;
261;SDS011;114;48.260;10.988;2022-12-20T04:03:48;9.83;;;8.77;;
261;SDS011;114;48.260;10.988;2022-12-20T04:06:15;15.40;;;10.00;;
261;SDS011;114;48.260;10.988;2022-12-20T04:08:41;11.10;;;8.83;;
261;SDS011;114;48.260;10.988;2022-12-20T04:11:07;10.07;;;8.00;;
261;SDS011;114;48.260;10.988;2022-12-20T04:13:42;9.00;;;7.57;;
261;SDS011;114;48.260;10.988;2022-12-20T04:16:10;9.67;;;8.37;;
261;SDS011;114;48.260;10.988;2022-12-20T04:18:36;9.00;;;7.30;;
261;SDS011;114;48.260;10.988;2022-12-20T04:21:02;8.27;;;7.10;;
261;SDS011;114;48.260;10.988;2022-12-20T04:23:29;9.30;;;8.30;;
261;SDS011;114;48.260;10.988;2022-12-20T04:25:54;8.27;;;6.97;;
261;SDS011;114;48.260;10.988;2022-12-20T04:28:20;8.67;;;7.37;;
261;SDS011;114;48.260;10.988;2022-12-20T04:30:46;9.53;;;7.60;;
261;SDS011;114;48.260;10.988;2022-12-20T04:33:11;10.03;;;7.73;;
261;SDS011;114;48.260;10.988;2022-12-20T04:35:37;9.00;;;7.17;;
261;SDS011;114;48.260;10.988;2022-12-20T04:38:03;7.33;;;6.63;;
261;SDS011;114;48.260;10.988;2022-12-20T04:40:29;8.53;;;6.37;;
261;SDS011;114;48.260;10.988;2022-12-20T04:42:54;9.30;;;6.53;;
261;SDS011;114;48.260;10.988;2022-12-20T04:45:20;7.20;;;6.50;;
261;SDS011;114;48.260;10.988;2022-12-20T04:47:46;8.60;;;7.30;;
261;SDS011;114;48.260;10.988;2022-12-20T04:50:12;7.97;;;7.20;;
261;SDS011;114;48.260;10.988;2022-12-20T04:52:38;10.00;;;7.57;;
261;SDS011;114;48.260;10.988;2022-12-20T04:55:22;9.00;;;7.23;;
261;SDS011;114;48.260;10.988;2022-12-20T04:57:48;7.53;;;6.60;;
261;SDS011;114;48.260;10.988;2022-12-20T05:00:13;10.10;;;7.07;;
261;SDS011;114;48.260;10.988;2022-12-20T05:02:40;8.60;;;7.00;;
261;SDS011;114;48.260;10.988;2022-12-20T05:05:06;9.40;;;7.33;;
261;SDS011;114;48.260;10.988;2022-12-20T05:07:32;7.30;;;6.60;;
261;SDS011;114;48.260;10.988;2022-12-20T05:09:57;10.20;;;7.50;;
261;SDS011;114;48.260;10.988;2022-12-20T05:12:23;8.77;;;7.13;;
261;SDS011;114;48.260;10.988;2022-12-20T05:14:49;9.40;;;7.13;;
261;SDS011;114;48.260;10.988;2022-12-20T05:17:15;13.17;;;7.80;;
261;SDS011;114;48.260;10.988;2022-12-20T05:19:40;7.77;;;6.40;;
261;SDS011;114;48.260;10.988;2022-12-20T05:22:06;8.63;;;7.53;;
261;SDS011;114;48.260;10.988;2022-12-20T05:24:52;10.43;;;7.10;;
261;SDS011;114;48.260;10.988;2022-12-20T05:27:36;8.30;;;7.23;;
261;SDS011;114;48.260;10.988;2022-12-20T05:30:02;6.53;;;5.80;;
261;SDS011;114;48.260;10.988;2022-12-20T05:32:29;6.53;;;5.80;;
261;SDS011;114;48.260;10.988;2022-12-20T05:34:54;7.87;;;6.30;;
261;SDS011;114;48.260;10.988;2022-12-20T05:37:20;6.20;;;5.63;;
261;SDS011;114;48.260;10.988;2022-12-20T05:39:46;6.97;;;6.27;;
261;SDS011;114;48.260;10.988;2022-12-20T05:42:11;8.77;;;7.10;;
261;SDS011;114;48.260;10.988;2022-12-20T05:44:37;8.97;;;6.50;;
261;SDS011;114;48.260;10.988;2022-12-20T05:47:04;8.00;;;6.40;;
261;SDS011;114;48.260;10.988;2022-12-20T05:49:30;11.90;;;6.93;;
261;SDS011;114;48.260;10.988;2022-12-20T05:51:56;8.37;;;5.63;;
261;SDS011;114;48.260;10.988;2022-12-20T05:54:22;12.50;;;5.80;;
261;SDS011;114;48.260;10.988;2022-12-20T05:56:49;6.47;;;5.73;;
261;SDS011;114;48.260;10.988;2022-12-20T05:59:16;7.97;;;5.93;;
261;SDS011;114;48.260;10.988;2022-12-20T06:01:42;7.80;;;5.83;;
261;SDS011;114;48.260;10.988;2022-12-20T06:04:08;6.77;;;5.70;;
261;SDS011;114;48.260;10.988;2022-12-20T06:06:34;8.77;;;6.03;;
261;SDS011;114;48.260;10.988;2022-12-20T06:08:59;6.20;;;5.57;;
261;SDS011;114;48.260;10.988;2022-12-20T06:11:25;9.10;;;6.70;;
261;SDS011;114;48.260;10.988;2022-12-20T06:13:51;7.13;;;6.07;;
261;SDS011;114;48.260;10.988;2022-12-20T06:16:17;6.73;;;5.53;;
261;SDS011;114;48.260;10.988;2022-12-20T06:18:44;6.10;;;5.37;;
261;SDS011;114;48.260;10.988;2022-12-20T06:21:10;6.03;;;5.43;;
261;SDS011;114;48.260;10.988;2022-12-20T06:23:37;6.67;;;5.97;;
261;SDS011;114;48.260;10.988;2022-12-20T06:26:04;7.10;;;5.97;;
261;SDS011;114;48.260;10.988;2022-12-20T06:28:33;5.90;;;5.40;;
261;SDS011;114;48.260;10.988;2022-12-20T06:31:00;5.67;;;5.17;;
261;SDS011;114;48.260;10.988;2022-12-20T06:33:25;6.73;;;5.23;;
261;SDS011;114;48.260;10.988;2022-12-20T06:35:51;5.80;;;5.17;;
261;SDS011;114;48.260;10.988;2022-12-20T06:38:17;5.07;;;4.57;;
261;SDS011;114;48.260;10.988;2022-12-20T06:40:43;4.97;;;4.50;;
261;SDS011;114;48.260;10.988;2022-12-20T06:43:09;4.80;;;4.40;;
261;SDS011;114;48.260;10.988;2022-12-20T06:45:35;6.87;;;5.07;;
261;SDS011;114;48.260;10.988;2022-12-20T06:48:00;5.10;;;4.67;;
261;SDS011;114;48.260;10.988;2022-12-20T06:50:26;5.57;;;5.07;;
261;SDS011;114;48.260;10.988;2022-12-20T06:52:52;5.47;;;4.97;;
261;SDS011;114;48.260;10.988;2022-12-20T06:55:18;5.60;;;5.10;;
261;SDS011;114;48.260;10.988;2022-12-20T06:57:43;3.90;;;3.60;;
261;SDS011;114;48.260;10.988;2022-12-20T07:00:10;5.40;;;4.50;;
261;SDS011;114;48.260;10.988;2022-12-20T07:02:37;5.00;;;4.53;;
261;SDS011;114;48.260;10.988;2022-12-20T07:05:03;3.63;;;3.43;;
261;SDS011;114;48.260;10.988;2022-12-20T07:07:29;5.00;;;4.60;;
261;SDS011;114;48.260;10.988;2022-12-20T07:09:55;4.73;;;4.33;;
261;SDS011;114;48.260;10.988;2022-12-20T07:12:21;13.93;;;3.53;;
261;SDS011;114;48.260;10.988;2022-12-20T07:14:47;5.47;;;4.60;;
261;SDS011;114;48.260;10.988;2022-12-20T07:17:13;4.93;;;4.30;;
261;SDS011;114;48.260;10.988;2022-12-20T07:19:39;6.23;;;4.50;;
261;SDS011;114;48.260;10.988;2022-12-20T07:22:05;5.07;;;4.67;;
261;SDS011;114;48.260;10.988;2022-12-20T07:24:31;4.93;;;4.43;;
261;SDS011;114;48.260;10.988;2022-12-20T07:26:58;4.73;;;4.33;;
261;SDS011;114;48.260;10.988;2022-12-20T07:29:24;5.90;;;4.13;;
261;SDS011;114;48.260;10.988;2022-12-20T07:31:50;5.87;;;4.47;;
261;SDS011;114;48.260;10.988;2022-12-20T07:34:16;5.13;;;3.90;;
261;SDS011;114;48.260;10.988;2022-12-20T07:36:43;4.83;;;4.43;;
261;SDS011;114;48.260;10.988;2022-12-20T07:39:09;6.17;;;4.87;;
261;SDS011;114;48.260;10.988;2022-12-20T07:41:35;4.53;;;4.13;;
261;SDS011;114;48.260;10.988;2022-12-20T07:44:01;4.93;;;4.50;;
261;SDS011;114;48.260;10.988;2022-12-20T07:46:26;5.33;;;4.80;;
261;SDS011;114;48.260;10.988;2022-12-20T07:48:52;4.30;;;4.00;;
261;SDS011;114;48.260;10.988;2022-12-20T07:51:28;3.30;;;3.10;;
261;SDS011;114;48.260;10.988;2022-12-20T07:54:03;3.00;;;2.80;;
261;SDS011;114;48.260;10.988;2022-12-20T07:56:37;3.93;;;3.60;;
261;SDS011;114;48.260;10.988;2022-12-20T07:59:07;3.70;;;3.50;;
261;SDS011;114;48.260;10.988;2022-12-20T08:01:35;4.07;;;3.83;;
261;SDS011;114;48.260;10.988;2022-12-20T08:04:03;3.20;;;2.90;;
261;SDS011;114;48.260;10.988;2022-12-20T08:06:33;2.73;;;2.60;;
261;SDS011;114;48.260;10.988;2022-12-20T08:09:01;4.00;;;3.40;;
261;SDS011;114;48.260;10.988;2022-12-20T08:11:29;3.33;;;3.10;;
261;SDS011;114;48.260;10.988;2022-12-20T08:13:58;3.97;;;3.67;;
261;SDS011;114;48.260;10.988;2022-12-20T08:16:24;3.20;;;3.00;;
261;SDS011;114;48.260;10.988;2022-12-20T08:18:50;4.10;;;3.73;;
261;SDS011;114;48.260;10.988;2022-12-20T08:21:16;4.13;;;3.73;;
261;SDS011;114;48.260;10.988;2022-12-20T08:23:41;7.80;;;6.57;;
261;SDS011;114;48.260;10.988;2022-12-20T08:26:07;7.90;;;5.67;;
261;SDS011;114;48.260;10.988;2022-12-20T08:28:33;12.33;;;5.30;;
261;SDS011;114;48.260;10.988;2022-12-20T08:31:00;6.37;;;5.40;;
261;SDS011;114;48.260;10.988;2022-12-20T08:33:27;8.13;;;4.60;;
261;SDS011;114;48.260;10.988;2022-12-20T08:35:56;4.47;;;4.03;;
261;SDS011;114;48.260;10.988;2022-12-20T08:38:28;6.93;;;5.37;;
261;SDS011;114;48.260;10.988;2022-12-20T08:40:55;9.20;;;6.13;;
261;SDS011;114;48.260;10.988;2022-12-20T08:43:26;6.83;;;4.50;;
261;SDS011;114;48.260;10.988;2022-12-20T08:45:52;3.90;;;3.57;;
261;SDS011;114;48.260;10.988;2022-12-20T08:48:19;3.57;;;3.33;;
261;SDS011;114;48.260;10.988;2022-12-20T08:50:45;4.00;;;3.60;;
261;SDS011;114;48.260;10.988;2022-12-20T08:53:11;3.00;;;2.80;;
261;SDS011;114;48.260;10.988;2022-12-20T08:55:36;2.70;;;2.60;;
261;SDS011;114;48.260;10.988;2022-12-20T08:58:02;3.10;;;2.90;;
261;SDS011;114;48.260;10.988;2022-12-20T09:00:28;3.10;;;2.70;;
261;SDS011;114;48.260;10.988;2022-12-20T09:02:54;4.33;;;2.67;;
261;SDS011;114;48.260;10.988;2022-12-20T09:05:19;2.97;;;2.80;;
261;SDS011;114;48.260;10.988;2022-12-20T09:07:45;3.10;;;2.90;;
261;SDS011;114;48.260;10.988;2022-12-20T09:10:11;3.43;;;2.70;;
261;SDS011;114;48.260;10.988;2022-12-20T09:12:37;5.23;;;2.80;;
261;SDS011;114;48.260;10.988;2022-12-20T09:15:03;2.90;;;2.70;;
261;SDS011;114;48.260;10.988;2022-12-20T09:17:30;2.90;;;2.20;;
261;SDS011;114;48.260;10.988;2022-12-20T09:19:56;2.40;;;2.20;;
261;SDS011;114;48.260;10.988;2022-12-20T09:22:21;3.07;;;2.30;;
261;SDS011;114;48.260;10.988;2022-12-20T09:24:47;2.10;;;1.90;;
261;SDS011;114;48.260;10.988;2022-12-20T09:27:13;2.47;;;2.37;;
261;SDS011;114;48.260;10.988;2022-12-20T09:29:39;2.37;;;2.27;;
261;SDS011;114;48.260;10.988;2022-12-20T09:32:05;2.17;;;2.00;;
261;SDS011;114;48.260;10.988;2022-12-20T09:34:30;2.83;;;2.60;;
261;SDS011;114;48.260;10.988;2022-12-20T09:36:56;2.00;;;1.90;;
261;SDS011;114;48.260;10.988;2022-12-20T09:39:22;3.30;;;2.60;;
261;SDS011;114;48.260;10.988;2022-12-20T09:41:48;2.57;;;2.37;;
261;SDS011;114;48.260;10.988;2022-12-20T09:44:18;4.07;;;2.90;;
261;SDS011;114;48.260;10.988;2022-12-20T09:47:11;2.40;;;2.20;;
261;SDS011;114;48.260;10.988;2022-12-20T09:49:46;4.50;;;2.20;;
261;SDS011;114;48.260;10.988;2022-12-20T09:57:33;2.17;;;2.07;;
261;SDS011;114;48.260;10.988;2022-12-20T10:00:14;2.40;;;2.30;;
261;SDS011;114;48.260;10.988;2022-12-20T10:02:42;2.70;;;2.50;;
261;SDS011;114;48.260;10.988;2022-12-20T10:05:12;2.80;;;2.60;;
261;SDS011;114;48.260;10.988;2022-12-20T10:08:18;2.40;;;2.30;;
261;SDS011;114;48.260;10.988;2022-12-20T10:21:38;3.13;;;2.87;;
261;SDS011;114;48.260;10.988;2022-12-20T10:24:20;2.43;;;2.33;;
261;SDS011;114;48.260;10.988;2022-12-20T10:26:54;2.60;;;2.40;;
261;SDS011;114;48.260;10.988;2022-12-20T10:29:23;3.17;;;2.97;;
261;SDS011;114;48.260;10.988;2022-12-20T10:31:53;9.30;;;3.73;;
261;SDS011;114;48.260;10.988;2022-12-20T10:34:24;3.23;;;2.93;;
261;SDS011;114;48.260;10.988;2022-12-20T10:37:09;5.37;;;4.00;;
261;SDS011;114;48.260;10.988;2022-12-20T10:39:56;2.63;;;2.37;;
261;SDS011;114;48.260;10.988;2022-12-20T10:44:54;19.63;;;13.70;;
261;SDS011;114;48.260;10.988;2022-12-20T10:47:34;5.60;;;5.10;;
261;SDS011;114;48.260;10.988;2022-12-20T10:50:22;5.17;;;4.73;;
261;SDS011;114;48.260;10.988;2022-12-20T10:53:32;2.97;;;2.77;;
261;SDS011;114;48.260;10.988;2022-12-20T10:55:37;2.80;;;2.70;;
261;SDS011;114;48.260;10.988;2022-12-20T10:58:21;2.80;;;2.60;;
261;SDS011;114;48.260;10.988;2022-12-20T11:01:12;3.40;;;3.10;;
261;SDS011;114;48.260;10.988;2022-12-20T11:03:51;3.10;;;2.90;;
261;SDS011;114;48.260;10.988;2022-12-20T11:06:49;5.70;;;3.10;;
261;SDS011;114;48.260;10.988;2022-12-20T11:14:37;2.90;;;2.70;;
261;SDS011;114;48.260;10.988;2022-12-20T11:17:05;5.63;;;3.07;;
261;SDS011;114;48.260;10.988;2022-12-20T11:25:30;3.53;;;3.23;;
261;SDS011;114;48.260;10.988;2022-12-20T11:30:42;2.73;;;2.63;;
261;SDS011;114;48.260;10.988;2022-12-20T11:33:20;3.97;;;2.90;;
261;SDS011;114;48.260;10.988;2022-12-20T11:44:31;3.40;;;3.17;;
261;SDS011;114;48.260;10.988;2022-12-20T11:47:05;3.83;;;3.43;;
261;SDS011;114;48.260;10.988;2022-12-20T12:00:35;3.10;;;2.90;;
261;SDS011;114;48.260;10.988;2022-12-20T12:03:11;2.73;;;2.53;;
261;SDS011;114;48.260;10.988;2022-12-20T12:05:54;5.33;;;3.57;;
261;SDS011;114;48.260;10.988;2022-12-20T12:08:33;4.90;;;3.30;;
261;SDS011;114;48.260;10.988;2022-12-20T12:11:20;3.10;;;2.90;;
261;SDS011;114;48.260;10.988;2022-12-20T12:13:51;3.03;;;2.80;;
261;SDS011;114;48.260;10.988;2022-12-20T12:16:36;2.97;;;2.57;;
261;SDS011;114;48.260;10.988;2022-12-20T12:19:09;2.93;;;2.63;;
261;SDS011;114;48.260;10.988;2022-12-20T12:21:42;3.73;;;2.93;;
261;SDS011;114;48.260;10.988;2022-12-20T12:24:21;2.30;;;2.20;;
261;SDS011;114;48.260;10.988;2022-12-20T12:26:53;2.57;;;2.47;;
261;SDS011;114;48.260;10.988;2022-12-20T12:29:19;2.70;;;2.50;;
261;SDS011;114;48.260;10.988;2022-12-20T12:31:48;2.80;;;2.60;;
261;SDS011;114;48.260;10.988;2022-12-20T12:37:04;2.47;;;2.23;;
261;SDS011;114;48.260;10.988;2022-12-20T12:42:41;6.93;;;5.27;;
261;SDS011;114;48.260;10.988;2022-12-20T12:49:02;16.70;;;11.77;;
261;SDS011;114;48.260;10.988;2022-12-20T12:50:58;8.20;;;5.73;;
261;SDS011;114;48.260;10.988;2022-12-20T12:55:55;4.07;;;3.77;;
261;SDS011;114;48.260;10.988;2022-12-20T13:00:53;3.57;;;3.30;;
261;SDS011;114;48.260;10.988;2022-12-20T13:03:36;5.23;;;3.60;;
261;SDS011;114;48.260;10.988;2022-12-20T13:09:09;3.87;;;3.57;;
261;SDS011;114;48.260;10.988;2022-12-20T13:11:42;5.40;;;3.80;;
261;SDS011;114;48.260;10.988;2022-12-20T13:16:49;8.20;;;4.30;;
261;SDS011;114;48.260;10.988;2022-12-20T13:21:57;3.23;;;3.00;;
261;SDS011;114;48.260;10.988;2022-12-20T13:29:52;3.80;;;3.40;;
261;SDS011;114;48.260;10.988;2022-12-20T13:37:56;3.80;;;3.47;;
261;SDS011;114;48.260;10.988;2022-12-20T13:40:37;5.37;;;3.37;;
261;SDS011;114;48.260;10.988;2022-12-20T13:45:53;4.27;;;3.50;;
261;SDS011;114;48.260;10.988;2022-12-20T13:51:25;7.23;;;3.17;;
261;SDS011;114;48.260;10.988;2022-12-20T13:53:53;4.87;;;4.47;;
261;SDS011;114;48.260;10.988;2022-12-20T13:56:30;5.83;;;4.70;;
261;SDS011;114;48.260;10.988;2022-12-20T14:01:49;6.40;;;4.60;;
261;SDS011;114;48.260;10.988;2022-12-20T14:04:17;4.60;;;4.13;;
261;SDS011;114;48.260;10.988;2022-12-20T14:06:49;5.63;;;5.23;;
261;SDS011;114;48.260;10.988;2022-12-20T14:09:31;11.60;;;6.30;;
261;SDS011;114;48.260;10.988;2022-12-20T14:12:06;15.10;;;6.30;;
261;SDS011;114;48.260;10.988;2022-12-20T14:14:42;6.30;;;5.50;;
261;SDS011;114;48.260;10.988;2022-12-20T14:17:23;6.07;;;5.47;;
261;SDS011;114;48.260;10.988;2022-12-20T14:22:39;5.60;;;5.10;;
261;SDS011;114;48.260;10.988;2022-12-20T14:25:30;5.03;;;4.73;;
261;SDS011;114;48.260;10.988;2022-12-20T14:28:34;7.60;;;6.40;;
261;SDS011;114;48.260;10.988;2022-12-20T14:31:03;38.03;;;20.40;;
261;SDS011;114;48.260;10.988;2022-12-20T14:36:07;35.33;;;22.63;;
261;SDS011;114;48.260;10.988;2022-12-20T14:38:34;27.80;;;17.77;;
261;SDS011;114;48.260;10.988;2022-12-20T14:41:01;23.40;;;15.73;;
261;SDS011;114;48.260;10.988;2022-12-20T14:43:33;19.87;;;13.70;;
261;SDS011;114;48.260;10.988;2022-12-20T14:48:44;15.57;;;10.17;;
261;SDS011;114;48.260;10.988;2022-12-20T14:51:11;10.60;;;7.40;;
261;SDS011;114;48.260;10.988;2022-12-20T14:53:38;11.70;;;9.33;;
261;SDS011;114;48.260;10.988;2022-12-20T14:56:04;14.73;;;11.03;;
261;SDS011;114;48.260;10.988;2022-12-20T14:58:37;12.40;;;9.73;;
261;SDS011;114;48.260;10.988;2022-12-20T15:03:49;13.70;;;10.10;;
261;SDS011;114;48.260;10.988;2022-12-20T15:09:10;10.70;;;8.73;;
261;SDS011;114;48.260;10.988;2022-12-20T15:11:36;10.10;;;8.67;;
261;SDS011;114;48.260;10.988;2022-12-20T15:14:07;10.47;;;9.27;;
261;SDS011;114;48.260;10.988;2022-12-20T15:17:04;10.13;;;8.30;;
261;SDS011;114;48.260;10.988;2022-12-20T15:19:35;12.80;;;9.73;;
261;SDS011;114;48.260;10.988;2022-12-20T15:22:01;16.00;;;12.40;;
261;SDS011;114;48.260;10.988;2022-12-20T15:24:27;40.73;;;22.43;;
261;SDS011;114;48.260;10.988;2022-12-20T15:26:53;35.63;;;22.80;;
261;SDS011;114;48.260;10.988;2022-12-20T15:29:21;23.60;;;16.70;;
261;SDS011;114;48.260;10.988;2022-12-20T15:31:48;35.07;;;21.63;;
261;SDS011;114;48.260;10.988;2022-12-20T15:34:24;43.57;;;27.47;;
261;SDS011;114;48.260;10.988;2022-12-20T15:36:55;43.03;;;23.73;;
261;SDS011;114;48.260;10.988;2022-12-20T15:39:24;33.80;;;21.00;;
261;SDS011;114;48.260;10.988;2022-12-20T15:41:51;30.90;;;20.03;;
261;SDS011;114;48.260;10.988;2022-12-20T15:44:20;31.03;;;19.40;;
261;SDS011;114;48.260;10.988;2022-12-20T15:46:48;32.57;;;19.43;;
261;SDS011;114;48.260;10.988;2022-12-20T15:49:15;29.90;;;19.33;;
261;SDS011;114;48.260;10.988;2022-12-20T15:51:43;31.60;;;19.07;;
261;SDS011;114;48.260;10.988;2022-12-20T15:54:32;20.50;;;14.10;;
261;SDS011;114;48.260;10.988;2022-12-20T15:57:01;21.10;;;12.40;;
261;SDS011;114;48.260;10.988;2022-12-20T15:59:31;27.13;;;14.27;;
261;SDS011;114;48.260;10.988;2022-12-20T16:01:57;33.43;;;14.97;;
261;SDS011;114;48.260;10.988;2022-12-20T16:04:24;26.43;;;14.50;;
261;SDS011;114;48.260;10.988;2022-12-20T16:06:50;22.40;;;15.03;;
261;SDS011;114;48.260;10.988;2022-12-20T16:09:18;9.50;;;7.40;;
261;SDS011;114;48.260;10.988;2022-12-20T16:11:44;8.50;;;7.67;;
261;SDS011;114;48.260;10.988;2022-12-20T16:14:14;6.90;;;6.17;;
261;SDS011;114;48.260;10.988;2022-12-20T16:16:41;11.47;;;7.23;;
261;SDS011;114;48.260;10.988;2022-12-20T16:19:08;8.50;;;6.40;;
261;SDS011;114;48.260;10.988;2022-12-20T16:21:44;7.10;;;6.43;;
261;SDS011;114;48.260;10.988;2022-12-20T16:24:16;8.87;;;7.23;;
261;SDS011;114;48.260;10.988;2022-12-20T16:26:43;12.60;;;7.73;;
261;SDS011;114;48.260;10.988;2022-12-20T16:29:09;10.10;;;8.07;;
261;SDS011;114;48.260;10.988;2022-12-20T16:31:36;10.33;;;8.50;;
261;SDS011;114;48.260;10.988;2022-12-20T16:34:13;7.27;;;6.57;;
261;SDS011;114;48.260;10.988;2022-12-20T16:36:40;7.97;;;7.17;;
261;SDS011;114;48.260;10.988;2022-12-20T16:39:07;9.50;;;7.33;;
261;SDS011;114;48.260;10.988;2022-12-20T16:41:36;8.13;;;7.37;;
261;SDS011;114;48.260;10.988;2022-12-20T16:44:04;10.53;;;7.50;;
261;SDS011;114;48.260;10.988;2022-12-20T16:46:31;13.37;;;10.80;;
261;SDS011;114;48.260;10.988;2022-12-20T16:48:58;13.17;;;10.40;;
261;SDS011;114;48.260;10.988;2022-12-20T16:51:37;11.10;;;8.60;;
261;SDS011;114;48.260;10.988;2022-12-20T16:54:14;9.10;;;7.60;;
261;SDS011;114;48.260;10.988;2022-12-20T16:56:43;7.87;;;7.17;;
261;SDS011;114;48.260;10.988;2022-12-20T16:59:11;15.40;;;10.83;;
261;SDS011;114;48.260;10.988;2022-12-20T17:01:38;12.50;;;9.97;;
261;SDS011;114;48.260;10.988;2022-12-20T17:04:08;13.70;;;10.53;;
261;SDS011;114;48.260;10.988;2022-12-20T17:06:37;13.10;;;11.20;;
261;SDS011;114;48.260;10.988;2022-12-20T17:09:03;18.37;;;10.20;;
261;SDS011;114;48.260;10.988;2022-12-20T17:11:29;19.80;;;12.20;;
261;SDS011;114;48.260;10.988;2022-12-20T17:13:56;14.00;;;11.37;;
261;SDS011;114;48.260;10.988;2022-12-20T17:16:24;12.80;;;10.23;;
261;SDS011;114;48.260;10.988;2022-12-20T17:18:51;10.63;;;9.37;;
261;SDS011;114;48.260;10.988;2022-12-20T17:23:47;10.80;;;9.33;;
261;SDS011;114;48.260;10.988;2022-12-20T17:26:16;22.10;;;13.80;;
261;SDS011;114;48.260;10.988;2022-12-20T17:28:44;19.07;;;13.43;;
261;SDS011;114;48.260;10.988;2022-12-20T17:34:04;16.47;;;12.87;;
261;SDS011;114;48.260;10.988;2022-12-20T17:36:33;17.70;;;12.30;;
261;SDS011;114;48.260;10.988;2022-12-20T17:38:59;25.30;;;12.20;;
261;SDS011;114;48.260;10.988;2022-12-20T17:41:26;15.93;;;12.57;;
261;SDS011;114;48.260;10.988;2022-12-20T17:43:54;15.40;;;12.57;;